Details for Japan Airlines at RJOO




Go Back


Latest METAR
Local Time

RJOO 022100Z 30003KT 260V330 CAVOK 04/02 Q1022 RMK A3020
03/04/2020, 07:10:13

Description
Results
Japan Airlines Logo
Number of Pilots based at RJOO
0 Pilots Based here
Number of Japan Airlines Flights Departed from RJOO
0 Flights Departed
Number of Japan Airlines Flights Arrived at RJOO
0 Flights Arrived
Number of Japan Airlines Schedules Departing from RJOO
24 Schedules
Number of Japan Airlines Schedules Arriving at RJOO
24 Schedules
Number of Japan Airlines Schedules Departing from RJOO availible today
24 Schedules Today
Number of Japan Airlines Schedules Arriving at RJOO availible today
24 Schedules Today
Average Landing Rate at RJOO
-188 fpm
Japan Airlines Average Landing Rate at RJOO
0 fpm
Total Fuel Purchased at RJOO by Japan Airlines
0.00 kgs / 0.00 lbs

Pilots Based at RJOO


Pilot ID
Pilot Name
Pilot Rank
No. of Flights
No. of Flying Hours
There are no pilots assigned to this hub!   Will you be the first?